Time;durP1;ratioP1;P1;durP2;ratioP2;P2;SDS_P1;SDS_P2;PMS_P1;PMS_P2;Temp;Humidity;BMP_temperature;BMP_pressure;BME280_temperature;BME280_humidity;BME280_pressure;Samples;Min_cycle;Max_cycle;Signal;HPM_P1;HPM_P2
2023/11/07 00:01:50;;;;;;;2.75;0.70;;;;;;;;;;5033648;28;20032;-41
2023/11/07 00:04:16;;;;;;;1.13;0.55;;;;;;;;;;5034295;28;20057;-41
2023/11/07 00:06:43;;;;;;;0.50;0.40;;;;;;;;;;5035650;28;20479;-38
2023/11/07 00:09:10;;;;;;;0.75;0.60;;;;;;;;;;5034256;28;20030;-37
2023/11/07 00:11:36;;;;;;;1.23;0.60;;;;;;;;;;5035677;28;20487;-41
2023/11/07 00:14:02;;;;;;;0.77;0.50;;;;;;;;;;5033385;28;20395;-39
2023/11/07 00:16:29;;;;;;;0.73;0.60;;;;;;;;;;5033502;28;20032;-41
2023/11/07 00:18:56;;;;;;;1.60;0.50;;;;;;;;;;5033341;28;20108;-38
2023/11/07 00:21:22;;;;;;;0.80;0.40;;;;;;;;;;5033255;28;20025;-41
2023/11/07 00:23:48;;;;;;;0.60;0.40;;;;;;;;;;5035619;28;20060;-39
2023/11/07 00:26:15;;;;;;;1.38;0.70;;;;;;;;;;5034029;28;20084;-40
2023/11/07 00:28:41;;;;;;;1.20;0.60;;;;;;;;;;5033316;28;20402;-38
2023/11/07 00:31:07;;;;;;;1.17;0.52;;;;;;;;;;5033056;28;20021;-39
2023/11/07 00:33:33;;;;;;;0.50;0.43;;;;;;;;;;5034336;28;20093;-40
2023/11/07 00:35:59;;;;;;;1.73;0.60;;;;;;;;;;5031996;28;20037;-41
2023/11/07 00:38:26;;;;;;;1.27;0.60;;;;;;;;;;5032942;28;20033;-38
2023/11/07 00:40:52;;;;;;;1.15;0.60;;;;;;;;;;5032998;28;20099;-37
2023/11/07 00:43:19;;;;;;;2.38;0.60;;;;;;;;;;5034417;28;20032;-39
2023/11/07 00:45:45;;;;;;;1.77;0.57;;;;;;;;;;5033480;28;20026;-40
2023/11/07 00:48:11;;;;;;;0.90;0.50;;;;;;;;;;5033738;28;20028;-41
2023/11/07 00:50:37;;;;;;;2.92;0.40;;;;;;;;;;5034897;28;20031;-39
2023/11/07 00:53:03;;;;;;;1.00;0.50;;;;;;;;;;5033527;28;20418;-39
2023/11/07 00:55:30;;;;;;;0.80;0.50;;;;;;;;;;5032539;28;20032;-37
2023/11/07 00:57:56;;;;;;;1.38;0.60;;;;;;;;;;5034349;28;20056;-39
2023/11/07 01:00:22;;;;;;;0.60;0.43;;;;;;;;;;5033646;28;20371;-39
2023/11/07 01:02:48;;;;;;;0.80;0.50;;;;;;;;;;5033832;28;20096;-37
2023/11/07 01:05:14;;;;;;;1.42;0.63;;;;;;;;;;5033343;28;20390;-39
2023/11/07 01:07:40;;;;;;;1.02;0.57;;;;;;;;;;5033600;28;20030;-37
2023/11/07 01:10:07;;;;;;;1.25;0.80;;;;;;;;;;5032449;28;20441;-39
2023/11/07 01:12:33;;;;;;;1.25;0.70;;;;;;;;;;5032369;28;20498;-38
2023/11/07 01:14:59;;;;;;;1.25;0.57;;;;;;;;;;5032571;28;20029;-40
2023/11/07 01:17:26;;;;;;;0.88;0.47;;;;;;;;;;5034138;28;20026;-39
2023/11/07 01:19:52;;;;;;;1.63;0.60;;;;;;;;;;5034125;28;20055;-39
2023/11/07 01:22:19;;;;;;;0.80;0.57;;;;;;;;;;5034181;28;20536;-40
2023/11/07 01:24:45;;;;;;;0.50;0.50;;;;;;;;;;5032711;28;20053;-39
2023/11/07 01:27:12;;;;;;;1.02;0.50;;;;;;;;;;5033039;28;20029;-38
2023/11/07 01:29:38;;;;;;;1.77;0.60;;;;;;;;;;5033116;28;20267;-41
2023/11/07 01:32:04;;;;;;;1.02;0.63;;;;;;;;;;5033597;28;20414;-41
2023/11/07 01:34:30;;;;;;;1.30;0.63;;;;;;;;;;5033757;28;20053;-40
2023/11/07 01:36:57;;;;;;;0.75;0.40;;;;;;;;;;5031685;28;20155;-42
2023/11/07 01:39:23;;;;;;;0.90;0.70;;;;;;;;;;5033733;28;20022;-40
2023/11/07 01:41:49;;;;;;;2.97;0.63;;;;;;;;;;5031832;28;20075;-39
2023/11/07 01:44:15;;;;;;;1.73;0.47;;;;;;;;;;5033874;28;20028;-41
2023/11/07 01:46:41;;;;;;;1.50;0.55;;;;;;;;;;5032044;28;20045;-41
2023/11/07 01:49:08;;;;;;;0.90;0.60;;;;;;;;;;5031657;28;20021;-41
2023/11/07 01:51:35;;;;;;;0.85;0.55;;;;;;;;;;5031580;28;20021;-40
2023/11/07 01:54:01;;;;;;;0.50;0.50;;;;;;;;;;5031618;28;20040;-38
2023/11/07 01:56:28;;;;;;;1.15;0.45;;;;;;;;;;5070917;23;20467;-36
2023/11/07 01:58:54;;;;;;;1.00;0.43;;;;;;;;;;5031196;28;20088;-35
2023/11/07 02:01:21;;;;;;;1.02;0.70;;;;;;;;;;5031251;28;20018;-35
2023/11/07 02:03:47;;;;;;;1.58;0.73;;;;;;;;;;5031511;28;20021;-37
2023/11/07 02:06:13;;;;;;;1.33;0.70;;;;;;;;;;5031236;28;20526;-35
2023/11/07 02:08:39;;;;;;;1.55;0.65;;;;;;;;;;5031309;28;20537;-34
2023/11/07 02:11:05;;;;;;;1.70;0.70;;;;;;;;;;5031327;28;20029;-35
2023/11/07 02:13:31;;;;;;;1.35;0.40;;;;;;;;;;5031417;28;20107;-35
2023/11/07 02:15:57;;;;;;;0.70;0.40;;;;;;;;;;5031260;28;20087;-34
2023/11/07 02:18:23;;;;;;;0.95;0.57;;;;;;;;;;5031215;28;20314;-35
2023/11/07 02:20:49;;;;;;;0.93;0.57;;;;;;;;;;5031640;28;20037;-36
2023/11/07 02:23:18;;;;;;;0.98;0.60;;;;;;;;;;5031222;28;20045;-35
2023/11/07 02:25:44;;;;;;;1.45;0.70;;;;;;;;;;5030955;28;20018;-36
2023/11/07 02:28:10;;;;;;;1.23;0.52;;;;;;;;;;5031031;28;20022;-38
2023/11/07 02:30:36;;;;;;;1.52;0.60;;;;;;;;;;5031144;28;20028;-34
2023/11/07 02:33:05;;;;;;;0.93;0.40;;;;;;;;;;5031088;28;20433;-35
2023/11/07 02:35:32;;;;;;;0.85;0.47;;;;;;;;;;5031033;28;20021;-35
2023/11/07 02:37:58;;;;;;;1.05;0.50;;;;;;;;;;5030907;28;20040;-35
2023/11/07 02:40:25;;;;;;;2.60;0.55;;;;;;;;;;5031031;28;20064;-35
2023/11/07 02:42:51;;;;;;;1.00;0.40;;;;;;;;;;5031098;28;20026;-34
2023/11/07 02:45:17;;;;;;;1.27;0.57;;;;;;;;;;5031037;28;20021;-35
2023/11/07 02:47:43;;;;;;;1.20;0.60;;;;;;;;;;5030816;28;20068;-38
2023/11/07 02:50:10;;;;;;;3.35;0.73;;;;;;;;;;5031029;28;20022;-37
2023/11/07 02:52:37;;;;;;;1.17;0.65;;;;;;;;;;5030842;28;20484;-41
2023/11/07 02:55:03;;;;;;;0.93;0.68;;;;;;;;;;5030838;28;20068;-38
2023/11/07 02:57:29;;;;;;;2.42;0.60;;;;;;;;;;5030721;28;20045;-37
2023/11/07 02:59:55;;;;;;;0.90;0.55;;;;;;;;;;5034760;28;20041;-37
2023/11/07 03:02:24;;;;;;;2.08;0.80;;;;;;;;;;5034691;28;20536;-36
2023/11/07 03:04:51;;;;;;;1.60;0.73;;;;;;;;;;5034651;28;20034;-38
2023/11/07 03:07:17;;;;;;;0.93;0.50;;;;;;;;;;5034198;28;20022;-36
2023/11/07 03:09:43;;;;;;;1.42;0.57;;;;;;;;;;5034590;28;20022;-36
2023/11/07 03:12:14;;;;;;;1.65;0.50;;;;;;;;;;5034535;28;20033;-36
2023/11/07 03:14:42;;;;;;;1.13;0.50;;;;;;;;;;5034524;28;20025;-38
2023/11/07 03:17:08;;;;;;;1.52;0.60;;;;;;;;;;5034288;28;20021;-36
2023/11/07 03:19:35;;;;;;;1.30;0.70;;;;;;;;;;5034477;28;20033;-36
2023/11/07 03:22:01;;;;;;;1.20;0.60;;;;;;;;;;5034202;28;20037;-38
2023/11/07 03:24:27;;;;;;;1.45;0.55;;;;;;;;;;5034285;28;20052;-37
2023/11/07 03:26:53;;;;;;;2.28;0.50;;;;;;;;;;5033933;28;20398;-38
2023/11/07 03:29:19;;;;;;;4.65;0.60;;;;;;;;;;5034226;28;20029;-38
2023/11/07 03:31:45;;;;;;;1.00;0.57;;;;;;;;;;5034152;28;20045;-37
2023/11/07 03:34:11;;;;;;;1.50;0.70;;;;;;;;;;5034111;28;20501;-40
2023/11/07 03:36:38;;;;;;;1.27;0.70;;;;;;;;;;5033719;28;20041;-36
2023/11/07 03:39:06;;;;;;;1.05;0.50;;;;;;;;;;5034057;28;20105;-36
2023/11/07 03:41:32;;;;;;;1.70;0.50;;;;;;;;;;5034137;28;20087;-37
2023/11/07 03:43:58;;;;;;;1.23;0.60;;;;;;;;;;5034132;28;20104;-37
2023/11/07 03:46:24;;;;;;;1.17;0.50;;;;;;;;;;5033615;28;20060;-42
2023/11/07 03:48:52;;;;;;;1.00;0.40;;;;;;;;;;5016088;28;20044;-36
2023/11/07 03:51:18;;;;;;;1.10;0.60;;;;;;;;;;5033797;28;20028;-38
2023/11/07 03:53:44;;;;;;;1.05;0.55;;;;;;;;;;5033831;28;20551;-38
2023/11/07 03:56:10;;;;;;;0.75;0.40;;;;;;;;;;5033637;28;20517;-37
2023/11/07 03:58:36;;;;;;;2.03;0.47;;;;;;;;;;5033383;28;20041;-38
2023/11/07 04:01:03;;;;;;;1.85;0.68;;;;;;;;;;5033648;28;20036;-39
2023/11/07 04:03:29;;;;;;;1.05;0.50;;;;;;;;;;5033514;28;20060;-37
2023/11/07 04:05:55;;;;;;;1.63;0.70;;;;;;;;;;5033798;28;20083;-36
2023/11/07 04:08:22;;;;;;;1.00;0.50;;;;;;;;;;5033367;28;20025;-37
2023/11/07 04:10:48;;;;;;;1.05;0.60;;;;;;;;;;5033295;28;20025;-36
2023/11/07 04:13:14;;;;;;;0.93;0.50;;;;;;;;;;5033454;28;20025;-38
2023/11/07 04:15:40;;;;;;;1.90;0.73;;;;;;;;;;5033294;28;20029;-36
2023/11/07 04:18:09;;;;;;;1.00;0.40;;;;;;;;;;5033114;28;20017;-36
2023/11/07 04:20:35;;;;;;;1.27;0.63;;;;;;;;;;5033259;28;20020;-36
2023/11/07 04:23:02;;;;;;;1.17;0.57;;;;;;;;;;5033262;28;20025;-36
2023/11/07 04:25:30;;;;;;;1.08;0.60;;;;;;;;;;5033029;28;20018;-39
2023/11/07 04:27:56;;;;;;;0.82;0.40;;;;;;;;;;5033042;28;20064;-37
2023/11/07 04:30:23;;;;;;;0.68;0.43;;;;;;;;;;5033163;28;20021;-40
2023/11/07 04:32:49;;;;;;;1.48;0.60;;;;;;;;;;5032950;28;20104;-39
2023/11/07 04:35:15;;;;;;;2.33;0.60;;;;;;;;;;5032875;28;20021;-39
2023/11/07 04:37:42;;;;;;;0.50;0.38;;;;;;;;;;5032837;28;20048;-38
2023/11/07 04:40:08;;;;;;;0.63;0.50;;;;;;;;;;5033238;28;20467;-37
2023/11/07 04:42:35;;;;;;;1.95;0.40;;;;;;;;;;5032832;28;20482;-36
2023/11/07 04:45:01;;;;;;;1.27;0.50;;;;;;;;;;5032728;28;20549;-36
2023/11/07 04:47:27;;;;;;;1.58;0.50;;;;;;;;;;5032504;28;20029;-38
2023/11/07 04:49:58;;;;;;;0.45;0.35;;;;;;;;;;5032615;28;20390;-37
2023/11/07 04:52:25;;;;;;;0.73;0.40;;;;;;;;;;5032862;28;20493;-36
2023/11/07 04:54:51;;;;;;;4.25;0.75;;;;;;;;;;5032628;28;20486;-37
2023/11/07 04:57:17;;;;;;;1.50;0.60;;;;;;;;;;5032264;28;20037;-37
2023/11/07 04:59:43;;;;;;;1.10;0.63;;;;;;;;;;5032497;28;20025;-36
2023/11/07 05:02:10;;;;;;;1.38;0.60;;;;;;;;;;5032672;28;20034;-37
2023/11/07 05:04:36;;;;;;;1.50;0.68;;;;;;;;;;5032413;28;20022;-36
2023/11/07 05:07:03;;;;;;;1.20;0.50;;;;;;;;;;5032160;28;20026;-36
2023/11/07 05:09:29;;;;;;;1.25;0.50;;;;;;;;;;5032425;28;20021;-36
2023/11/07 05:11:57;;;;;;;1.13;0.55;;;;;;;;;;5032319;28;20053;-36
2023/11/07 05:14:23;;;;;;;1.67;0.50;;;;;;;;;;5032158;28;20386;-36
2023/11/07 05:16:49;;;;;;;1.20;0.70;;;;;;;;;;5031985;28;20482;-36
2023/11/07 05:19:17;;;;;;;0.75;0.50;;;;;;;;;;5032293;28;20030;-36
2023/11/07 05:21:43;;;;;;;1.05;0.60;;;;;;;;;;5031585;28;20451;-37
2023/11/07 05:24:09;;;;;;;1.10;0.50;;;;;;;;;;5032076;28;20033;-36
2023/11/07 05:26:35;;;;;;;1.55;0.70;;;;;;;;;;5031800;28;20167;-37
2023/11/07 05:29:01;;;;;;;0.52;0.30;;;;;;;;;;5031897;28;20057;-37
2023/11/07 05:31:27;;;;;;;1.27;0.50;;;;;;;;;;5032115;28;20514;-36
2023/11/07 05:33:53;;;;;;;0.85;0.45;;;;;;;;;;5031847;28;20029;-38
2023/11/07 05:36:20;;;;;;;1.80;0.52;;;;;;;;;;5031848;28;20048;-36
2023/11/07 05:38:47;;;;;;;1.23;0.50;;;;;;;;;;5031846;28;20029;-36
2023/11/07 05:41:14;;;;;;;0.85;0.45;;;;;;;;;;5031861;28;20029;-37
2023/11/07 05:43:40;;;;;;;0.85;0.30;;;;;;;;;;5013967;28;20033;-36
2023/11/07 05:46:07;;;;;;;1.25;0.50;;;;;;;;;;5031580;28;20025;-36
2023/11/07 05:48:34;;;;;;;1.95;0.63;;;;;;;;;;5031510;28;20075;-36
2023/11/07 05:51:00;;;;;;;0.65;0.40;;;;;;;;;;5031651;28;20505;-37
2023/11/07 05:53:26;;;;;;;1.85;0.60;;;;;;;;;;5031631;28;20103;-36
2023/11/07 05:55:52;;;;;;;0.63;0.50;;;;;;;;;;5031452;28;20030;-38
2023/11/07 05:58:18;;;;;;;1.20;0.68;;;;;;;;;;5031259;28;20544;-36
2023/11/07 06:00:44;;;;;;;1.65;0.60;;;;;;;;;;5031568;28;20487;-38
2023/11/07 06:03:14;;;;;;;0.68;0.50;;;;;;;;;;5031461;28;20393;-37
2023/11/07 06:05:43;;;;;;;0.90;0.40;;;;;;;;;;5013478;28;20140;-37
2023/11/07 06:08:09;;;;;;;1.10;0.60;;;;;;;;;;5031305;28;20064;-37
2023/11/07 06:10:35;;;;;;;1.65;0.45;;;;;;;;;;5031349;28;20028;-37
2023/11/07 06:13:05;;;;;;;1.27;0.60;;;;;;;;;;5031437;28;20029;-37
2023/11/07 06:15:31;;;;;;;0.85;0.45;;;;;;;;;;5031288;28;20033;-36
2023/11/07 06:17:57;;;;;;;1.60;0.60;;;;;;;;;;5031128;28;20107;-38
2023/11/07 06:20:23;;;;;;;1.25;0.65;;;;;;;;;;5031270;28;20482;-37
2023/11/07 06:22:50;;;;;;;1.85;0.70;;;;;;;;;;5031210;28;20467;-37
2023/11/07 06:25:17;;;;;;;0.73;0.45;;;;;;;;;;5031123;28;20047;-37
2023/11/07 06:27:43;;;;;;;0.77;0.50;;;;;;;;;;5031003;28;20389;-36
2023/11/07 06:30:10;;;;;;;0.50;0.40;;;;;;;;;;5031224;28;20530;-36
2023/11/07 06:32:37;;;;;;;0.80;0.50;;;;;;;;;;5031347;28;20032;-39
2023/11/07 06:35:05;;;;;;;0.85;0.50;;;;;;;;;;5035192;28;20431;-37
2023/11/07 06:37:33;;;;;;;2.47;0.52;;;;;;;;;;5035496;28;20097;-36
2023/11/07 06:40:00;;;;;;;1.23;0.50;;;;;;;;;;5035096;28;20037;-36
2023/11/07 06:42:26;;;;;;;1.05;0.55;;;;;;;;;;5035103;28;20087;-37
2023/11/07 06:44:52;;;;;;;0.98;0.60;;;;;;;;;;5035073;28;20033;-38
2023/11/07 06:47:18;;;;;;;0.60;0.50;;;;;;;;;;5034725;28;20018;-37
2023/11/07 06:49:44;;;;;;;1.00;0.50;;;;;;;;;;5035032;28;20021;-38
2023/11/07 06:52:10;;;;;;;1.17;0.60;;;;;;;;;;5034950;28;20029;-38
2023/11/07 06:54:36;;;;;;;2.33;0.63;;;;;;;;;;5034748;28;20064;-39
2023/11/07 06:57:02;;;;;;;0.93;0.55;;;;;;;;;;5034515;28;20419;-39
2023/11/07 06:59:28;;;;;;;0.85;0.52;;;;;;;;;;5034813;28;20021;-41
2023/11/07 07:01:54;;;;;;;0.60;0.50;;;;;;;;;;5034679;28;20037;-39
2023/11/07 07:04:20;;;;;;;0.60;0.40;;;;;;;;;;5034689;28;20455;-39
2023/11/07 07:06:46;;;;;;;2.25;0.60;;;;;;;;;;5034300;28;20498;-39
2023/11/07 07:09:13;;;;;;;0.70;0.50;;;;;;;;;;5034563;28;20494;-36
2023/11/07 07:11:40;;;;;;;1.13;0.60;;;;;;;;;;5034792;28;20053;-36
2023/11/07 07:14:06;;;;;;;0.95;0.50;;;;;;;;;;5034463;28;20394;-36
2023/11/07 07:16:32;;;;;;;9.25;4.72;;;;;;;;;;5034213;28;20515;-36
2023/11/07 07:18:58;;;;;;;4.50;2.00;;;;;;;;;;5034471;28;20032;-37
2023/11/07 07:21:25;;;;;;;1.42;1.00;;;;;;;;;;5034328;28;20447;-39
2023/11/07 07:23:51;;;;;;;1.42;1.00;;;;;;;;;;5034418;28;20083;-37
2023/11/07 07:26:17;;;;;;;2.10;1.20;;;;;;;;;;5034085;28;20467;-41
2023/11/07 07:28:43;;;;;;;2.10;1.27;;;;;;;;;;5034195;28;20021;-38
2023/11/07 07:31:10;;;;;;;1.75;1.23;;;;;;;;;;5034179;28;20053;-40
2023/11/07 07:33:37;;;;;;;4.13;1.05;;;;;;;;;;5034516;28;20458;-36
2023/11/07 07:36:04;;;;;;;6.22;0.80;;;;;;;;;;5034030;28;20671;-37
2023/11/07 07:38:35;;;;;;;1.30;0.60;;;;;;;;;;5034050;28;20036;-36
2023/11/07 07:41:01;;;;;;;3.83;0.90;;;;;;;;;;5034234;28;20495;-36
2023/11/07 07:43:28;;;;;;;4.63;0.90;;;;;;;;;;5033555;28;20057;-39
2023/11/07 07:45:55;;;;;;;2.92;0.90;;;;;;;;;;5033635;28;20063;-37
2023/11/07 07:48:22;;;;;;;3.55;0.90;;;;;;;;;;5033753;28;20052;-36
2023/11/07 07:50:48;;;;;;;3.53;0.65;;;;;;;;;;5033843;28;20113;-37
2023/11/07 07:53:15;;;;;;;2.80;0.80;;;;;;;;;;5033872;28;20030;-36
2023/11/07 07:55:44;;;;;;;4.03;0.90;;;;;;;;;;5033832;28;20093;-38
2023/11/07 07:58:11;;;;;;;2.70;0.85;;;;;;;;;;5056361;23;20045;-41
2023/11/07 08:00:37;;;;;;;1.45;0.60;;;;;;;;;;5033342;28;20397;-42
2023/11/07 08:03:08;;;;;;;3.03;0.90;;;;;;;;;;5035319;28;20469;-42
2023/11/07 08:05:38;;;;;;;3.17;0.57;;;;;;;;;;5034281;28;20021;-40
2023/11/07 08:08:05;;;;;;;1.70;0.60;;;;;;;;;;5033915;28;20052;-42
2023/11/07 08:10:31;;;;;;;1.27;0.60;;;;;;;;;;5033864;28;20021;-41
2023/11/07 08:12:58;;;;;;;1.08;0.68;;;;;;;;;;5033956;28;20115;-39
2023/11/07 08:15:27;;;;;;;4.15;0.90;;;;;;;;;;5034515;28;20036;-43
2023/11/07 08:17:54;;;;;;;1.63;0.55;;;;;;;;;;5034702;28;20398;-41
2023/11/07 08:20:22;;;;;;;2.47;0.60;;;;;;;;;;5034219;28;20460;-42
2023/11/07 08:22:49;;;;;;;1.77;0.57;;;;;;;;;;5033284;28;20029;-43
2023/11/07 08:25:18;;;;;;;1.10;0.55;;;;;;;;;;5033207;28;20068;-43
2023/11/07 08:27:45;;;;;;;0.98;0.50;;;;;;;;;;5033472;28;20032;-42
2023/11/07 08:30:16;;;;;;;1.85;0.70;;;;;;;;;;5034728;28;20025;-40
2023/11/07 08:32:43;;;;;;;0.95;0.50;;;;;;;;;;5033509;28;20014;-40
2023/11/07 08:35:11;;;;;;;1.70;0.65;;;;;;;;;;5033522;28;20026;-37
2023/11/07 08:37:37;;;;;;;2.63;0.60;;;;;;;;;;5032984;28;20045;-40
2023/11/07 08:40:06;;;;;;;1.27;0.63;;;;;;;;;;5033320;28;20525;-44
2023/11/07 08:42:32;;;;;;;1.40;0.57;;;;;;;;;;5033246;28;20424;-36
2023/11/07 08:44:59;;;;;;;1.02;0.70;;;;;;;;;;5032923;28;20479;-38
2023/11/07 08:47:25;;;;;;;1.58;0.60;;;;;;;;;;5034730;28;20045;-38
2023/11/07 08:49:55;;;;;;;2.13;0.60;;;;;;;;;;5032817;28;20026;-38
2023/11/07 08:52:21;;;;;;;2.45;0.40;;;;;;;;;;5033049;28;20455;-38
2023/11/07 08:54:47;;;;;;;1.30;0.60;;;;;;;;;;5033480;28;20021;-39
2023/11/07 08:57:13;;;;;;;0.82;0.32;;;;;;;;;;5032297;28;20099;-38
2023/11/07 08:59:44;;;;;;;0.80;0.50;;;;;;;;;;5033724;28;20068;-39
2023/11/07 09:02:10;;;;;;;0.52;0.45;;;;;;;;;;5033653;28;20132;-37
2023/11/07 09:04:37;;;;;;;1.20;0.70;;;;;;;;;;5033153;28;20163;-37
2023/11/07 09:07:03;;;;;;;1.00;0.50;;;;;;;;;;5032261;28;20025;-40
2023/11/07 09:09:30;;;;;;;2.10;0.60;;;;;;;;;;5033035;28;20109;-40
2023/11/07 09:11:56;;;;;;;0.93;0.43;;;;;;;;;;5020431;28;20048;-41
2023/11/07 09:14:22;;;;;;;1.33;0.75;;;;;;;;;;5052437;28;20500;-41
2023/11/07 09:16:48;;;;;;;1.20;0.60;;;;;;;;;;5053379;28;20094;-37
2023/11/07 09:19:14;;;;;;;1.25;0.55;;;;;;;;;;5052148;28;20102;-39
2023/11/07 09:21:42;;;;;;;1.70;0.60;;;;;;;;;;5052150;28;20025;-40
2023/11/07 09:24:09;;;;;;;0.68;0.40;;;;;;;;;;5052936;28;20551;-39
2023/11/07 09:26:35;;;;;;;1.48;0.60;;;;;;;;;;5052323;28;20092;-37
2023/11/07 09:29:08;;;;;;;1.73;0.65;;;;;;;;;;5052831;28;20469;-38
2023/11/07 09:31:34;;;;;;;1.63;0.60;;;;;;;;;;5053258;28;20039;-39
2023/11/07 09:34:00;;;;;;;1.20;0.68;;;;;;;;;;5053140;28;20029;-36
2023/11/07 09:36:27;;;;;;;0.80;0.50;;;;;;;;;;5052709;28;20512;-40
2023/11/07 09:38:54;;;;;;;1.50;0.60;;;;;;;;;;5052515;28;20585;-40
2023/11/07 09:41:20;;;;;;;1.70;0.43;;;;;;;;;;5053419;28;20394;-40
2023/11/07 09:43:47;;;;;;;0.95;0.40;;;;;;;;;;5052455;28;20621;-37
2023/11/07 09:46:14;;;;;;;0.60;0.40;;;;;;;;;;5052584;28;20478;-40
2023/11/07 09:48:41;;;;;;;1.15;0.30;;;;;;;;;;5052252;28;20106;-40
2023/11/07 09:51:08;;;;;;;1.65;0.50;;;;;;;;;;5051680;28;20043;-38
2023/11/07 09:53:35;;;;;;;1.20;0.60;;;;;;;;;;5052469;28;20036;-39
2023/11/07 09:56:03;;;;;;;1.00;0.47;;;;;;;;;;5052171;28;20036;-37
2023/11/07 09:58:29;;;;;;;0.90;0.35;;;;;;;;;;5051822;28;20489;-40
2023/11/07 10:00:58;;;;;;;0.88;0.47;;;;;;;;;;5054016;28;20428;-38
2023/11/07 10:03:24;;;;;;;1.10;0.50;;;;;;;;;;5053199;28;20033;-38
2023/11/07 10:05:52;;;;;;;1.50;0.55;;;;;;;;;;5053171;28;20025;-39
2023/11/07 10:08:24;;;;;;;0.50;0.40;;;;;;;;;;5052776;28;20064;-38
2023/11/07 10:11:09;;;;;;;1.52;0.55;;;;;;;;;;5053010;28;20024;-39
2023/11/07 10:13:35;;;;;;;0.77;0.38;;;;;;;;;;5052036;28;20049;-37
2023/11/07 10:16:06;;;;;;;2.05;0.65;;;;;;;;;;5051643;28;20040;-42
2023/11/07 10:18:46;;;;;;;0.98;0.40;;;;;;;;;;5052956;28;20021;-38
2023/11/07 10:21:13;;;;;;;1.27;0.52;;;;;;;;;;5052316;28;20017;-40
2023/11/07 10:23:40;;;;;;;1.02;0.40;;;;;;;;;;5053072;28;20059;-36
2023/11/07 10:26:15;;;;;;;0.85;0.50;;;;;;;;;;5052496;28;20029;-40
2023/11/07 10:28:42;;;;;;;0.75;0.32;;;;;;;;;;5051167;28;20021;-40
2023/11/07 10:31:20;;;;;;;0.30;0.30;;;;;;;;;;5051368;28;20386;-38
2023/11/07 10:33:46;;;;;;;1.08;0.35;;;;;;;;;;5051719;28;20052;-40
2023/11/07 10:36:12;;;;;;;0.77;0.40;;;;;;;;;;5051070;28;20025;-38
2023/11/07 10:38:39;;;;;;;1.20;0.47;;;;;;;;;;5050963;28;20021;-41
2023/11/07 10:41:05;;;;;;;2.85;0.52;;;;;;;;;;5052152;28;20029;-39
2023/11/07 10:43:33;;;;;;;0.85;0.30;;;;;;;;;;5051480;28;20067;-39
2023/11/07 10:46:06;;;;;;;0.43;0.40;;;;;;;;;;5051246;28;20079;-39
2023/11/07 10:48:38;;;;;;;1.08;0.43;;;;;;;;;;5051689;28;20036;-40
2023/11/07 10:51:05;;;;;;;0.88;0.38;;;;;;;;;;5051006;28;20171;-39
2023/11/07 10:53:34;;;;;;;0.95;0.50;;;;;;;;;;5050968;28;20029;-38
2023/11/07 10:56:03;;;;;;;1.52;0.68;;;;;;;;;;5050677;28;20078;-39
2023/11/07 10:58:32;;;;;;;0.80;0.45;;;;;;;;;;5050790;28;20035;-37
2023/11/07 11:01:02;;;;;;;0.82;0.40;;;;;;;;;;5051158;28;20096;-40
2023/11/07 11:03:30;;;;;;;1.55;0.60;;;;;;;;;;5051068;28;20075;-40
2023/11/07 11:05:58;;;;;;;0.90;0.50;;;;;;;;;;5050685;28;20049;-36
2023/11/07 11:08:25;;;;;;;0.60;0.35;;;;;;;;;;5051856;28;20106;-39
2023/11/07 11:10:52;;;;;;;1.00;0.45;;;;;;;;;;5050603;28;20029;-38
2023/11/07 11:13:23;;;;;;;1.23;0.65;;;;;;;;;;5051346;28;20025;-40
2023/11/07 11:15:50;;;;;;;0.90;0.50;;;;;;;;;;5052417;28;20070;-41
2023/11/07 11:18:20;;;;;;;0.80;0.50;;;;;;;;;;5053152;28;20017;-40
2023/11/07 11:20:58;;;;;;;1.02;0.60;;;;;;;;;;5054271;28;20025;-40
2023/11/07 11:23:44;;;;;;;0.90;0.50;;;;;;;;;;5055171;28;20025;-40
2023/11/07 11:26:27;;;;;;;1.08;0.40;;;;;;;;;;5055229;28;20075;-40
2023/11/07 11:28:53;;;;;;;0.70;0.43;;;;;;;;;;5056647;28;20032;-39
2023/11/07 11:31:24;;;;;;;0.65;0.32;;;;;;;;;;5055164;28;20077;-39
2023/11/07 11:34:10;;;;;;;1.17;0.40;;;;;;;;;;5054640;28;20018;-40
2023/11/07 11:36:39;;;;;;;0.68;0.40;;;;;;;;;;5055007;28;20024;-37
2023/11/07 11:39:24;;;;;;;1.30;0.60;;;;;;;;;;5055382;28;20025;-39
2023/11/07 11:41:57;;;;;;;0.77;0.40;;;;;;;;;;5054312;28;20051;-40
2023/11/07 11:44:26;;;;;;;0.88;0.38;;;;;;;;;;5054278;28;20421;-37
2023/11/07 11:46:52;;;;;;;1.00;0.60;;;;;;;;;;5054399;28;20481;-40
2023/11/07 11:49:21;;;;;;;0.82;0.50;;;;;;;;;;5054667;28;20027;-40
2023/11/07 11:51:48;;;;;;;0.80;0.40;;;;;;;;;;5053944;28;20029;-36
2023/11/07 11:54:16;;;;;;;1.10;0.60;;;;;;;;;;5054692;28;20024;-40
2023/11/07 11:56:51;;;;;;;0.40;0.28;;;;;;;;;;5053315;28;20033;-37
2023/11/07 11:59:17;;;;;;;1.02;0.47;;;;;;;;;;5054089;28;20083;-38
2023/11/07 12:01:48;;;;;;;0.85;0.55;;;;;;;;;;5051835;28;20029;-43
2023/11/07 12:04:30;;;;;;;0.88;0.60;;;;;;;;;;5054009;28;20025;-43
2023/11/07 12:07:08;;;;;;;0.90;0.60;;;;;;;;;;5050653;28;20044;-46
2023/11/07 12:09:34;;;;;;;2.83;0.50;;;;;;;;;;5054803;28;20395;-43
2023/11/07 12:12:01;;;;;;;0.57;0.35;;;;;;;;;;5055369;28;20025;-42
2023/11/07 12:14:32;;;;;;;0.98;0.50;;;;;;;;;;5055867;28;20025;-41
2023/11/07 12:16:59;;;;;;;2.38;0.60;;;;;;;;;;5053484;28;20029;-40
2023/11/07 12:19:25;;;;;;;1.13;0.40;;;;;;;;;;5053226;28;20082;-40
2023/11/07 12:21:55;;;;;;;2.92;0.50;;;;;;;;;;5053639;28;20021;-43
2023/11/07 12:24:22;;;;;;;0.57;0.38;;;;;;;;;;5053976;28;20397;-43
2023/11/07 12:26:49;;;;;;;3.30;0.50;;;;;;;;;;5053964;28;20036;-43
2023/11/07 12:29:27;;;;;;;1.58;0.30;;;;;;;;;;5053114;28;20032;-40
2023/11/07 12:31:53;;;;;;;0.60;0.40;;;;;;;;;;5053792;28;20029;-39
2023/11/07 12:34:32;;;;;;;1.23;0.35;;;;;;;;;;5054934;28;20417;-40
2023/11/07 12:37:07;;;;;;;0.50;0.30;;;;;;;;;;5052896;28;20025;-38
2023/11/07 12:39:33;;;;;;;0.73;0.30;;;;;;;;;;5053172;28;20067;-41
2023/11/07 12:41:59;;;;;;;0.70;0.40;;;;;;;;;;5053112;28;20033;-41
2023/11/07 12:44:27;;;;;;;1.42;0.40;;;;;;;;;;5053985;28;20038;-38
2023/11/07 12:46:53;;;;;;;0.93;0.50;;;;;;;;;;5052771;28;20512;-37
2023/11/07 12:49:19;;;;;;;0.82;0.40;;;;;;;;;;5054376;28;20036;-38
2023/11/07 12:51:46;;;;;;;0.68;0.32;;;;;;;;;;5054546;28;20088;-38
2023/11/07 12:54:13;;;;;;;2.00;0.30;;;;;;;;;;5052724;28;20418;-41
2023/11/07 12:56:42;;;;;;;1.50;0.50;;;;;;;;;;5053245;28;20035;-38
2023/11/07 12:59:12;;;;;;;1.20;0.47;;;;;;;;;;5053803;28;20563;-37
2023/11/07 13:01:39;;;;;;;0.98;0.43;;;;;;;;;;5053553;28;20033;-40
2023/11/07 13:04:09;;;;;;;2.28;0.32;;;;;;;;;;5053362;28;20451;-38
2023/11/07 13:06:35;;;;;;;0.90;0.55;;;;;;;;;;5052164;28;20032;-38
2023/11/07 13:09:12;;;;;;;1.17;0.30;;;;;;;;;;5053705;28;20056;-41
2023/11/07 13:11:40;;;;;;;1.05;0.50;;;;;;;;;;5052308;28;20021;-39
2023/11/07 13:14:06;;;;;;;0.50;0.40;;;;;;;;;;5053718;28;20017;-40
2023/11/07 13:16:33;;;;;;;1.02;0.55;;;;;;;;;;5052062;28;20063;-39
2023/11/07 13:18:59;;;;;;;1.30;0.60;;;;;;;;;;5052955;28;20032;-40
2023/11/07 13:21:25;;;;;;;0.38;0.38;;;;;;;;;;5052344;28;20021;-39
2023/11/07 13:23:51;;;;;;;0.35;0.30;;;;;;;;;;5051966;28;20021;-38
2023/11/07 13:26:19;;;;;;;0.73;0.38;;;;;;;;;;5053129;28;20086;-41
2023/11/07 13:28:46;;;;;;;0.60;0.30;;;;;;;;;;5052376;28;20068;-38
2023/11/07 13:31:13;;;;;;;0.60;0.30;;;;;;;;;;5052070;28;20025;-39
2023/11/07 13:33:43;;;;;;;0.30;0.30;;;;;;;;;;5053010;28;20049;-38
2023/11/07 13:36:10;;;;;;;1.25;0.40;;;;;;;;;;5052611;28;20450;-38
2023/11/07 13:38:36;;;;;;;0.30;0.20;;;;;;;;;;5052722;28;20044;-40
2023/11/07 13:41:02;;;;;;;0.68;0.50;;;;;;;;;;5052694;28;20092;-40
2023/11/07 13:43:29;;;;;;;0.50;0.30;;;;;;;;;;5051924;28;20385;-37
2023/11/07 13:45:56;;;;;;;0.50;0.40;;;;;;;;;;5051566;28;20021;-39
2023/11/07 13:48:24;;;;;;;0.40;0.28;;;;;;;;;;5051558;28;20489;-39
2023/11/07 13:50:50;;;;;;;1.10;0.30;;;;;;;;;;5051906;28;20417;-40
2023/11/07 13:53:17;;;;;;;0.75;0.43;;;;;;;;;;5052148;28;20025;-37
2023/11/07 13:55:46;;;;;;;1.02;0.50;;;;;;;;;;5051426;28;20017;-40
2023/11/07 13:58:12;;;;;;;0.60;0.40;;;;;;;;;;5097649;22;20045;-39
2023/11/07 14:00:38;;;;;;;0.60;0.32;;;;;;;;;;5071349;28;20031;-38
2023/11/07 14:03:06;;;;;;;0.63;0.25;;;;;;;;;;5071534;28;20040;-39
2023/11/07 14:05:32;;;;;;;0.30;0.25;;;;;;;;;;5071515;28;20051;-43
2023/11/07 14:08:01;;;;;;;0.20;0.20;;;;;;;;;;5071057;28;20087;-38
2023/11/07 14:10:31;;;;;;;0.85;0.40;;;;;;;;;;5071541;28;20020;-39
2023/11/07 14:12:57;;;;;;;0.95;0.30;;;;;;;;;;5071973;28;20070;-39
2023/11/07 14:15:34;;;;;;;0.43;0.15;;;;;;;;;;5072028;28;20060;-39
2023/11/07 14:18:01;;;;;;;0.55;0.30;;;;;;;;;;5071322;28;20036;-38
2023/11/07 14:20:30;;;;;;;0.38;0.30;;;;;;;;;;5071257;28;20025;-38
2023/11/07 14:22:56;;;;;;;0.50;0.35;;;;;;;;;;5071463;28;20052;-39
2023/11/07 14:25:29;;;;;;;0.73;0.40;;;;;;;;;;5071323;28;20033;-40
2023/11/07 14:27:55;;;;;;;1.55;0.30;;;;;;;;;;5071120;28;20078;-40
2023/11/07 14:30:24;;;;;;;1.30;0.40;;;;;;;;;;5071190;28;20017;-41
2023/11/07 14:32:51;;;;;;;0.40;0.20;;;;;;;;;;5071032;28;20031;-39
2023/11/07 14:35:19;;;;;;;0.60;0.30;;;;;;;;;;5071092;28;20055;-40
2023/11/07 14:37:45;;;;;;;0.50;0.30;;;;;;;;;;5071059;28;20503;-40
2023/11/07 14:40:13;;;;;;;0.50;0.35;;;;;;;;;;5053202;28;20056;-42
2023/11/07 14:42:39;;;;;;;0.60;0.40;;;;;;;;;;5071302;28;20032;-40
2023/11/07 14:45:09;;;;;;;0.80;0.40;;;;;;;;;;5071046;28;20021;-36